Pagrindinis puslapis
METAR-TAF:

METAR-TAF

Oro uostai :

Niamėjus, Nigeris

platuma: 13-29N, ilguma: 002-10E, Aukštis: 223 m

Dabartinis oras

Ataskaita buvo paskelbta 42 minutes, ne 08:00 UTC
Vėjas 7 kt iš Rytų
Temperatūra 25°C
Drėgmė 15%
Slėgis 1014 hPa
Matomumas: 8000 m

METAR: DRRN 060800Z 09007KT 8000 NSC 25/M03 Q1014 TEMPO 4500 DU

Laikas: 09:42 (08:42 UTC)

Prognozė

Ataskaita buvo paskelbta 3 valandos ir 42 minutes, ne 05:00 UTC
Prognozė galioja nuo 06 metu 06 UTC su 07 metu 12 UTC
Vėjas 8 kt iš Rytų
Matomumas: 8000 m
Laikinai
nuo 06 metu 07 UTC su 06 metu 09 UTC
Matomumas: 4500 m
dulkės
Laikinai
nuo 06 metu 09 UTC su 06 metu 12 UTC
Vėjas 18 kt iš Rytų

TAF: DRRN 060500Z 0606/0712 08008KT 8000 NSC TEMPO 0607/0609 4500 DU TEMPO 0609/0612 10018KT

Orai ataskaitas ir orų prognozės (METAR, TAF).

turimą stotys yra geltonos ir raudonos taškus žemėlapyje.

Perkelti pele per norėdami pamatyti stoties vardą.

Tada spustelėkite, norėdami matyti oro stebėjimo ir prognozės.

Norėdami pakeisti žemėlapį: spustelėkite ant žalios mygtukų su juodo kryžiaus žemyn,; žalią mygtuką su brūkšneliu, jei norite nutolinti; arba žalių rodyklių gretimoms žemėlapius.


METAR-TAF: